sensor_id;sensor_type;location;lat;lon;timestamp;P1;durP1;ratioP1;P2;durP2;ratioP2
15706;SDS011;7953;54.302;10.128;2022-11-20T00:00:20;4.10;;;3.70;;
15706;SDS011;7953;54.302;10.128;2022-11-20T00:02:47;4.97;;;3.87;;
15706;SDS011;7953;54.302;10.128;2022-11-20T00:05:14;4.97;;;4.33;;
15706;SDS011;7953;54.302;10.128;2022-11-20T00:07:41;4.47;;;4.07;;
15706;SDS011;7953;54.302;10.128;2022-11-20T00:10:08;4.63;;;4.13;;
15706;SDS011;7953;54.302;10.128;2022-11-20T00:12:35;5.80;;;5.10;;
15706;SDS011;7953;54.302;10.128;2022-11-20T00:15:03;6.07;;;4.80;;
15706;SDS011;7953;54.302;10.128;2022-11-20T00:17:31;6.10;;;5.00;;
15706;SDS011;7953;54.302;10.128;2022-11-20T00:19:58;8.30;;;6.00;;
15706;SDS011;7953;54.302;10.128;2022-11-20T00:22:24;7.20;;;5.80;;
15706;SDS011;7953;54.302;10.128;2022-11-20T00:24:51;5.37;;;4.87;;
15706;SDS011;7953;54.302;10.128;2022-11-20T00:27:18;7.47;;;5.53;;
15706;SDS011;7953;54.302;10.128;2022-11-20T00:29:45;5.53;;;5.03;;
15706;SDS011;7953;54.302;10.128;2022-11-20T00:32:14;4.80;;;4.30;;
15706;SDS011;7953;54.302;10.128;2022-11-20T00:34:40;6.47;;;4.80;;
15706;SDS011;7953;54.302;10.128;2022-11-20T00:37:07;5.03;;;4.57;;
15706;SDS011;7953;54.302;10.128;2022-11-20T00:39:36;5.40;;;4.43;;
15706;SDS011;7953;54.302;10.128;2022-11-20T00:42:03;5.27;;;4.73;;
15706;SDS011;7953;54.302;10.128;2022-11-20T00:44:30;5.10;;;4.60;;
15706;SDS011;7953;54.302;10.128;2022-11-20T00:46:57;6.13;;;4.37;;
15706;SDS011;7953;54.302;10.128;2022-11-20T00:49:25;4.63;;;4.03;;
15706;SDS011;7953;54.302;10.128;2022-11-20T00:51:52;4.63;;;4.20;;
15706;SDS011;7953;54.302;10.128;2022-11-20T00:54:19;5.40;;;4.00;;
15706;SDS011;7953;54.302;10.128;2022-11-20T00:56:46;5.17;;;4.50;;
15706;SDS011;7953;54.302;10.128;2022-11-20T00:59:12;4.90;;;3.50;;
15706;SDS011;7953;54.302;10.128;2022-11-20T01:01:39;7.90;;;4.83;;
15706;SDS011;7953;54.302;10.128;2022-11-20T01:04:06;6.87;;;4.13;;
15706;SDS011;7953;54.302;10.128;2022-11-20T01:06:35;4.00;;;3.63;;
15706;SDS011;7953;54.302;10.128;2022-11-20T01:09:04;4.47;;;4.03;;
15706;SDS011;7953;54.302;10.128;2022-11-20T01:11:33;7.27;;;4.40;;
15706;SDS011;7953;54.302;10.128;2022-11-20T01:14:01;5.37;;;3.93;;
15706;SDS011;7953;54.302;10.128;2022-11-20T01:16:31;5.20;;;3.80;;
15706;SDS011;7953;54.302;10.128;2022-11-20T01:18:59;6.70;;;4.40;;
15706;SDS011;7953;54.302;10.128;2022-11-20T01:21:29;7.07;;;4.57;;
15706;SDS011;7953;54.302;10.128;2022-11-20T01:23:58;7.80;;;4.43;;
15706;SDS011;7953;54.302;10.128;2022-11-20T01:26:26;5.23;;;4.03;;
15706;SDS011;7953;54.302;10.128;2022-11-20T01:28:55;5.90;;;3.93;;
15706;SDS011;7953;54.302;10.128;2022-11-20T01:31:23;6.80;;;3.77;;
15706;SDS011;7953;54.302;10.128;2022-11-20T01:33:52;6.00;;;4.80;;
15706;SDS011;7953;54.302;10.128;2022-11-20T01:36:22;4.67;;;3.90;;
15706;SDS011;7953;54.302;10.128;2022-11-20T01:38:51;4.43;;;3.97;;
15706;SDS011;7953;54.302;10.128;2022-11-20T01:41:20;5.33;;;4.33;;
15706;SDS011;7953;54.302;10.128;2022-11-20T01:44:04;4.53;;;4.10;;
15706;SDS011;7953;54.302;10.128;2022-11-20T01:46:31;4.77;;;4.23;;
15706;SDS011;7953;54.302;10.128;2022-11-20T01:49:00;4.40;;;4.00;;
15706;SDS011;7953;54.302;10.128;2022-11-20T01:51:30;4.40;;;3.97;;
15706;SDS011;7953;54.302;10.128;2022-11-20T01:54:02;5.00;;;3.70;;
15706;SDS011;7953;54.302;10.128;2022-11-20T01:56:35;4.97;;;3.97;;
15706;SDS011;7953;54.302;10.128;2022-11-20T01:59:05;6.10;;;3.50;;
15706;SDS011;7953;54.302;10.128;2022-11-20T02:01:34;4.57;;;3.60;;
15706;SDS011;7953;54.302;10.128;2022-11-20T02:04:01;4.00;;;3.60;;
15706;SDS011;7953;54.302;10.128;2022-11-20T02:06:30;5.00;;;3.60;;
15706;SDS011;7953;54.302;10.128;2022-11-20T02:09:01;4.13;;;3.53;;
15706;SDS011;7953;54.302;10.128;2022-11-20T02:11:29;4.63;;;3.73;;
15706;SDS011;7953;54.302;10.128;2022-11-20T02:13:57;6.20;;;3.40;;
15706;SDS011;7953;54.302;10.128;2022-11-20T02:16:25;5.83;;;4.03;;
15706;SDS011;7953;54.302;10.128;2022-11-20T02:18:54;5.57;;;3.37;;
15706;SDS011;7953;54.302;10.128;2022-11-20T02:21:27;4.20;;;3.27;;
15706;SDS011;7953;54.302;10.128;2022-11-20T02:24:04;4.97;;;3.17;;
15706;SDS011;7953;54.302;10.128;2022-11-20T02:26:36;3.10;;;2.83;;
15706;SDS011;7953;54.302;10.128;2022-11-20T02:29:07;4.07;;;3.53;;
15706;SDS011;7953;54.302;10.128;2022-11-20T02:31:36;3.83;;;3.53;;
15706;SDS011;7953;54.302;10.128;2022-11-20T02:34:04;3.87;;;3.47;;
15706;SDS011;7953;54.302;10.128;2022-11-20T02:36:32;6.60;;;3.83;;
15706;SDS011;7953;54.302;10.128;2022-11-20T02:39:00;5.00;;;3.50;;
15706;SDS011;7953;54.302;10.128;2022-11-20T02:41:33;5.27;;;3.63;;
15706;SDS011;7953;54.302;10.128;2022-11-20T02:44:00;4.80;;;3.50;;
15706;SDS011;7953;54.302;10.128;2022-11-20T02:46:28;4.60;;;3.43;;
15706;SDS011;7953;54.302;10.128;2022-11-20T02:48:56;6.37;;;3.13;;
15706;SDS011;7953;54.302;10.128;2022-11-20T02:51:22;6.23;;;3.63;;
15706;SDS011;7953;54.302;10.128;2022-11-20T02:53:50;5.10;;;3.63;;
15706;SDS011;7953;54.302;10.128;2022-11-20T02:56:17;5.73;;;3.63;;
15706;SDS011;7953;54.302;10.128;2022-11-20T02:58:45;5.93;;;3.57;;
15706;SDS011;7953;54.302;10.128;2022-11-20T03:01:12;4.87;;;3.43;;
15706;SDS011;7953;54.302;10.128;2022-11-20T03:03:39;5.13;;;3.53;;
15706;SDS011;7953;54.302;10.128;2022-11-20T03:06:06;4.50;;;3.40;;
15706;SDS011;7953;54.302;10.128;2022-11-20T03:08:34;3.40;;;3.10;;
15706;SDS011;7953;54.302;10.128;2022-11-20T03:11:04;4.67;;;3.63;;
15706;SDS011;7953;54.302;10.128;2022-11-20T03:13:33;4.43;;;3.70;;
15706;SDS011;7953;54.302;10.128;2022-11-20T03:16:06;7.23;;;3.73;;
15706;SDS011;7953;54.302;10.128;2022-11-20T03:18:34;5.97;;;3.63;;
15706;SDS011;7953;54.302;10.128;2022-11-20T03:21:01;5.53;;;3.40;;
15706;SDS011;7953;54.302;10.128;2022-11-20T03:23:28;5.83;;;3.50;;
15706;SDS011;7953;54.302;10.128;2022-11-20T03:26:06;8.17;;;4.00;;
15706;SDS011;7953;54.302;10.128;2022-11-20T03:28:34;5.50;;;3.03;;
15706;SDS011;7953;54.302;10.128;2022-11-20T03:31:06;4.53;;;4.13;;
15706;SDS011;7953;54.302;10.128;2022-11-20T03:33:37;4.87;;;3.80;;
15706;SDS011;7953;54.302;10.128;2022-11-20T03:36:04;4.97;;;4.03;;
15706;SDS011;7953;54.302;10.128;2022-11-20T03:38:33;5.37;;;3.53;;
15706;SDS011;7953;54.302;10.128;2022-11-20T03:41:00;4.10;;;3.50;;
15706;SDS011;7953;54.302;10.128;2022-11-20T03:43:28;4.47;;;3.43;;
15706;SDS011;7953;54.302;10.128;2022-11-20T03:45:55;4.57;;;3.20;;
15706;SDS011;7953;54.302;10.128;2022-11-20T03:48:23;4.60;;;3.70;;
15706;SDS011;7953;54.302;10.128;2022-11-20T03:50:50;5.67;;;3.83;;
15706;SDS011;7953;54.302;10.128;2022-11-20T03:53:18;3.83;;;3.30;;
15706;SDS011;7953;54.302;10.128;2022-11-20T03:55:45;5.07;;;3.87;;
15706;SDS011;7953;54.302;10.128;2022-11-20T03:58:17;6.83;;;3.67;;
15706;SDS011;7953;54.302;10.128;2022-11-20T04:00:44;5.27;;;3.77;;
15706;SDS011;7953;54.302;10.128;2022-11-20T04:03:10;4.47;;;3.57;;
15706;SDS011;7953;54.302;10.128;2022-11-20T04:05:39;7.53;;;4.17;;
15706;SDS011;7953;54.302;10.128;2022-11-20T04:08:05;4.70;;;4.03;;
15706;SDS011;7953;54.302;10.128;2022-11-20T04:10:32;4.77;;;3.70;;
15706;SDS011;7953;54.302;10.128;2022-11-20T04:12:59;5.17;;;3.57;;
15706;SDS011;7953;54.302;10.128;2022-11-20T04:15:26;4.93;;;3.97;;
15706;SDS011;7953;54.302;10.128;2022-11-20T04:17:53;4.30;;;3.90;;
15706;SDS011;7953;54.302;10.128;2022-11-20T04:20:20;3.70;;;3.40;;
15706;SDS011;7953;54.302;10.128;2022-11-20T04:22:48;4.67;;;3.50;;
15706;SDS011;7953;54.302;10.128;2022-11-20T04:25:18;4.70;;;3.73;;
15706;SDS011;7953;54.302;10.128;2022-11-20T04:27:45;4.93;;;3.67;;
15706;SDS011;7953;54.302;10.128;2022-11-20T04:30:12;5.13;;;4.13;;
15706;SDS011;7953;54.302;10.128;2022-11-20T04:32:39;5.37;;;3.90;;
15706;SDS011;7953;54.302;10.128;2022-11-20T04:35:06;4.43;;;4.03;;
15706;SDS011;7953;54.302;10.128;2022-11-20T04:37:33;5.20;;;4.03;;
15706;SDS011;7953;54.302;10.128;2022-11-20T04:40:02;6.63;;;4.23;;
15706;SDS011;7953;54.302;10.128;2022-11-20T04:42:29;5.13;;;4.37;;
15706;SDS011;7953;54.302;10.128;2022-11-20T04:44:56;4.97;;;4.20;;
15706;SDS011;7953;54.302;10.128;2022-11-20T04:47:23;6.00;;;4.37;;
15706;SDS011;7953;54.302;10.128;2022-11-20T04:49:50;3.90;;;3.50;;
15706;SDS011;7953;54.302;10.128;2022-11-20T04:52:17;4.30;;;3.90;;
15706;SDS011;7953;54.302;10.128;2022-11-20T04:54:44;5.57;;;3.97;;
15706;SDS011;7953;54.302;10.128;2022-11-20T04:57:13;4.03;;;3.40;;
15706;SDS011;7953;54.302;10.128;2022-11-20T04:59:43;4.57;;;3.63;;
15706;SDS011;7953;54.302;10.128;2022-11-20T05:02:10;4.33;;;3.73;;
15706;SDS011;7953;54.302;10.128;2022-11-20T05:04:37;4.17;;;3.67;;
15706;SDS011;7953;54.302;10.128;2022-11-20T05:07:04;5.40;;;3.57;;
15706;SDS011;7953;54.302;10.128;2022-11-20T05:09:31;4.27;;;3.70;;
15706;SDS011;7953;54.302;10.128;2022-11-20T05:11:58;4.67;;;4.27;;
15706;SDS011;7953;54.302;10.128;2022-11-20T05:14:26;4.37;;;3.13;;
15706;SDS011;7953;54.302;10.128;2022-11-20T05:16:53;4.47;;;3.90;;
15706;SDS011;7953;54.302;10.128;2022-11-20T05:19:20;5.73;;;3.40;;
15706;SDS011;7953;54.302;10.128;2022-11-20T05:21:47;4.37;;;3.97;;
15706;SDS011;7953;54.302;10.128;2022-11-20T05:24:13;3.60;;;3.20;;
15706;SDS011;7953;54.302;10.128;2022-11-20T05:26:40;2.90;;;2.67;;
15706;SDS011;7953;54.302;10.128;2022-11-20T05:29:09;2.87;;;2.43;;
15706;SDS011;7953;54.302;10.128;2022-11-20T05:31:38;3.53;;;2.83;;
15706;SDS011;7953;54.302;10.128;2022-11-20T05:34:06;2.90;;;2.70;;
15706;SDS011;7953;54.302;10.128;2022-11-20T05:36:32;3.03;;;2.57;;
15706;SDS011;7953;54.302;10.128;2022-11-20T05:38:59;3.50;;;3.20;;
15706;SDS011;7953;54.302;10.128;2022-11-20T05:41:26;3.17;;;2.87;;
15706;SDS011;7953;54.302;10.128;2022-11-20T05:43:53;2.93;;;2.73;;
15706;SDS011;7953;54.302;10.128;2022-11-20T05:46:22;2.67;;;2.20;;
15706;SDS011;7953;54.302;10.128;2022-11-20T05:48:50;2.33;;;2.03;;
15706;SDS011;7953;54.302;10.128;2022-11-20T05:51:17;2.40;;;2.17;;
15706;SDS011;7953;54.302;10.128;2022-11-20T05:53:45;2.63;;;2.43;;
15706;SDS011;7953;54.302;10.128;2022-11-20T05:56:13;2.83;;;2.63;;
15706;SDS011;7953;54.302;10.128;2022-11-20T05:58:41;2.80;;;2.60;;
15706;SDS011;7953;54.302;10.128;2022-11-20T06:01:10;3.13;;;2.57;;
15706;SDS011;7953;54.302;10.128;2022-11-20T06:03:38;3.07;;;2.77;;
15706;SDS011;7953;54.302;10.128;2022-11-20T06:06:08;3.40;;;3.10;;
15706;SDS011;7953;54.302;10.128;2022-11-20T06:08:35;3.70;;;3.40;;
15706;SDS011;7953;54.302;10.128;2022-11-20T06:11:03;4.20;;;3.80;;
15706;SDS011;7953;54.302;10.128;2022-11-20T06:13:30;4.27;;;3.80;;
15706;SDS011;7953;54.302;10.128;2022-11-20T06:15:57;4.63;;;4.20;;
15706;SDS011;7953;54.302;10.128;2022-11-20T06:18:25;5.10;;;4.60;;
15706;SDS011;7953;54.302;10.128;2022-11-20T06:20:58;5.23;;;4.73;;
15706;SDS011;7953;54.302;10.128;2022-11-20T06:23:28;4.50;;;4.10;;
15706;SDS011;7953;54.302;10.128;2022-11-20T06:25:56;5.20;;;4.70;;
15706;SDS011;7953;54.302;10.128;2022-11-20T06:28:24;5.57;;;4.70;;
15706;SDS011;7953;54.302;10.128;2022-11-20T06:30:51;5.30;;;4.77;;
15706;SDS011;7953;54.302;10.128;2022-11-20T06:33:18;5.37;;;4.83;;
15706;SDS011;7953;54.302;10.128;2022-11-20T06:35:45;4.80;;;4.40;;
15706;SDS011;7953;54.302;10.128;2022-11-20T06:38:12;5.70;;;5.20;;
15706;SDS011;7953;54.302;10.128;2022-11-20T06:40:40;7.00;;;4.33;;
15706;SDS011;7953;54.302;10.128;2022-11-20T06:43:08;5.93;;;5.33;;
15706;SDS011;7953;54.302;10.128;2022-11-20T06:45:35;6.70;;;6.10;;
15706;SDS011;7953;54.302;10.128;2022-11-20T06:48:02;7.83;;;5.57;;
15706;SDS011;7953;54.302;10.128;2022-11-20T06:50:30;6.07;;;5.47;;
15706;SDS011;7953;54.302;10.128;2022-11-20T06:52:59;6.47;;;5.17;;
15706;SDS011;7953;54.302;10.128;2022-11-20T06:55:27;6.47;;;5.80;;
15706;SDS011;7953;54.302;10.128;2022-11-20T06:57:55;7.30;;;5.20;;
15706;SDS011;7953;54.302;10.128;2022-11-20T07:00:22;6.13;;;5.33;;
15706;SDS011;7953;54.302;10.128;2022-11-20T07:02:49;6.33;;;5.30;;
15706;SDS011;7953;54.302;10.128;2022-11-20T07:05:16;8.03;;;5.97;;
15706;SDS011;7953;54.302;10.128;2022-11-20T07:07:44;6.30;;;4.90;;
15706;SDS011;7953;54.302;10.128;2022-11-20T07:10:11;5.23;;;4.73;;
15706;SDS011;7953;54.302;10.128;2022-11-20T07:12:38;7.10;;;5.30;;
15706;SDS011;7953;54.302;10.128;2022-11-20T07:15:07;5.90;;;4.30;;
15706;SDS011;7953;54.302;10.128;2022-11-20T07:17:35;6.13;;;4.37;;
15706;SDS011;7953;54.302;10.128;2022-11-20T07:20:02;6.10;;;4.67;;
15706;SDS011;7953;54.302;10.128;2022-11-20T07:22:29;4.13;;;3.73;;
15706;SDS011;7953;54.302;10.128;2022-11-20T07:24:56;5.83;;;5.10;;
15706;SDS011;7953;54.302;10.128;2022-11-20T07:27:23;3.80;;;3.50;;
15706;SDS011;7953;54.302;10.128;2022-11-20T07:29:50;4.97;;;3.53;;
15706;SDS011;7953;54.302;10.128;2022-11-20T07:32:18;4.30;;;3.03;;
15706;SDS011;7953;54.302;10.128;2022-11-20T07:34:45;3.90;;;3.50;;
15706;SDS011;7953;54.302;10.128;2022-11-20T07:37:12;3.67;;;2.90;;
15706;SDS011;7953;54.302;10.128;2022-11-20T07:39:39;4.20;;;3.80;;
15706;SDS011;7953;54.302;10.128;2022-11-20T07:42:06;3.60;;;3.20;;
15706;SDS011;7953;54.302;10.128;2022-11-20T07:44:33;3.90;;;3.20;;
15706;SDS011;7953;54.302;10.128;2022-11-20T07:47:01;4.47;;;3.13;;
15706;SDS011;7953;54.302;10.128;2022-11-20T07:49:29;3.80;;;3.20;;
15706;SDS011;7953;54.302;10.128;2022-11-20T07:51:56;2.90;;;2.60;;
15706;SDS011;7953;54.302;10.128;2022-11-20T07:54:23;2.80;;;2.60;;
15706;SDS011;7953;54.302;10.128;2022-11-20T07:56:50;3.00;;;2.70;;
15706;SDS011;7953;54.302;10.128;2022-11-20T07:59:17;6.43;;;2.80;;
15706;SDS011;7953;54.302;10.128;2022-11-20T08:01:43;2.73;;;2.33;;
15706;SDS011;7953;54.302;10.128;2022-11-20T08:04:10;1.40;;;1.30;;
15706;SDS011;7953;54.302;10.128;2022-11-20T08:06:39;4.73;;;1.17;;
15706;SDS011;7953;54.302;10.128;2022-11-20T08:09:06;0.90;;;0.80;;
15706;SDS011;7953;54.302;10.128;2022-11-20T08:11:32;0.67;;;0.67;;
15706;SDS011;7953;54.302;10.128;2022-11-20T08:14:17;0.67;;;0.67;;
15706;SDS011;7953;54.302;10.128;2022-11-20T08:16:44;0.60;;;0.60;;
15706;SDS011;7953;54.302;10.128;2022-11-20T08:19:12;0.60;;;0.60;;
15706;SDS011;7953;54.302;10.128;2022-11-20T08:21:42;1.07;;;0.90;;
15706;SDS011;7953;54.302;10.128;2022-11-20T08:24:10;1.33;;;0.80;;
15706;SDS011;7953;54.302;10.128;2022-11-20T08:26:37;0.70;;;0.70;;
15706;SDS011;7953;54.302;10.128;2022-11-20T08:29:05;1.13;;;1.03;;
15706;SDS011;7953;54.302;10.128;2022-11-20T08:31:33;1.00;;;0.83;;
15706;SDS011;7953;54.302;10.128;2022-11-20T08:34:00;1.43;;;0.90;;
15706;SDS011;7953;54.302;10.128;2022-11-20T08:36:26;1.10;;;1.00;;
15706;SDS011;7953;54.302;10.128;2022-11-20T08:38:55;2.27;;;1.47;;
15706;SDS011;7953;54.302;10.128;2022-11-20T08:41:24;1.37;;;1.27;;
15706;SDS011;7953;54.302;10.128;2022-11-20T08:43:53;1.60;;;1.10;;
15706;SDS011;7953;54.302;10.128;2022-11-20T08:46:24;1.83;;;1.00;;
15706;SDS011;7953;54.302;10.128;2022-11-20T08:48:53;1.20;;;1.10;;
15706;SDS011;7953;54.302;10.128;2022-11-20T08:51:22;1.80;;;1.13;;
15706;SDS011;7953;54.302;10.128;2022-11-20T08:53:49;2.90;;;1.13;;
15706;SDS011;7953;54.302;10.128;2022-11-20T08:56:17;2.00;;;1.90;;
15706;SDS011;7953;54.302;10.128;2022-11-20T08:58:49;1.40;;;1.20;;
15706;SDS011;7953;54.302;10.128;2022-11-20T09:01:19;2.40;;;1.33;;
15706;SDS011;7953;54.302;10.128;2022-11-20T09:03:48;2.23;;;1.70;;
15706;SDS011;7953;54.302;10.128;2022-11-20T09:06:16;1.73;;;1.43;;
15706;SDS011;7953;54.302;10.128;2022-11-20T09:08:43;3.83;;;2.17;;
15706;SDS011;7953;54.302;10.128;2022-11-20T09:11:10;4.37;;;1.97;;
15706;SDS011;7953;54.302;10.128;2022-11-20T09:13:38;6.33;;;4.03;;
15706;SDS011;7953;54.302;10.128;2022-11-20T09:16:06;3.40;;;3.03;;
15706;SDS011;7953;54.302;10.128;2022-11-20T09:18:35;4.77;;;3.23;;
15706;SDS011;7953;54.302;10.128;2022-11-20T09:21:03;5.17;;;3.83;;
15706;SDS011;7953;54.302;10.128;2022-11-20T09:23:32;5.03;;;3.80;;
15706;SDS011;7953;54.302;10.128;2022-11-20T09:26:04;6.30;;;3.37;;
15706;SDS011;7953;54.302;10.128;2022-11-20T09:28:31;4.43;;;4.03;;
15706;SDS011;7953;54.302;10.128;2022-11-20T09:31:00;5.93;;;4.20;;
15706;SDS011;7953;54.302;10.128;2022-11-20T09:33:27;6.07;;;3.93;;
15706;SDS011;7953;54.302;10.128;2022-11-20T09:35:54;7.80;;;7.03;;
15706;SDS011;7953;54.302;10.128;2022-11-20T09:38:20;7.37;;;6.13;;
15706;SDS011;7953;54.302;10.128;2022-11-20T09:40:50;8.77;;;6.17;;
15706;SDS011;7953;54.302;10.128;2022-11-20T09:43:28;18.07;;;15.07;;
15706;SDS011;7953;54.302;10.128;2022-11-20T09:46:07;9.47;;;7.90;;
15706;SDS011;7953;54.302;10.128;2022-11-20T09:48:45;6.40;;;4.63;;
15706;SDS011;7953;54.302;10.128;2022-11-20T09:51:23;3.33;;;2.87;;
15706;SDS011;7953;54.302;10.128;2022-11-20T09:54:02;5.33;;;3.13;;
15706;SDS011;7953;54.302;10.128;2022-11-20T09:56:40;4.30;;;3.37;;
15706;SDS011;7953;54.302;10.128;2022-11-20T09:59:14;4.63;;;4.00;;
15706;SDS011;7953;54.302;10.128;2022-11-20T10:01:56;3.90;;;3.27;;
15706;SDS011;7953;54.302;10.128;2022-11-20T10:04:25;6.63;;;3.27;;
15706;SDS011;7953;54.302;10.128;2022-11-20T10:06:55;7.60;;;2.73;;
15706;SDS011;7953;54.302;10.128;2022-11-20T10:09:30;3.87;;;2.90;;
15706;SDS011;7953;54.302;10.128;2022-11-20T10:12:05;3.70;;;2.90;;
15706;SDS011;7953;54.302;10.128;2022-11-20T10:14:42;5.90;;;3.70;;
15706;SDS011;7953;54.302;10.128;2022-11-20T10:17:22;6.50;;;3.63;;
15706;SDS011;7953;54.302;10.128;2022-11-20T10:20:05;7.93;;;4.10;;
15706;SDS011;7953;54.302;10.128;2022-11-20T10:22:46;20.17;;;6.97;;
15706;SDS011;7953;54.302;10.128;2022-11-20T10:25:33;4.63;;;3.97;;
15706;SDS011;7953;54.302;10.128;2022-11-20T10:28:16;4.60;;;3.93;;
15706;SDS011;7953;54.302;10.128;2022-11-20T10:30:55;6.83;;;3.80;;
15706;SDS011;7953;54.302;10.128;2022-11-20T10:33:29;5.60;;;4.07;;
15706;SDS011;7953;54.302;10.128;2022-11-20T10:36:04;8.07;;;3.87;;
15706;SDS011;7953;54.302;10.128;2022-11-20T10:38:37;7.60;;;4.00;;
15706;SDS011;7953;54.302;10.128;2022-11-20T10:41:09;5.93;;;3.93;;
15706;SDS011;7953;54.302;10.128;2022-11-20T10:43:53;11.83;;;3.60;;
15706;SDS011;7953;54.302;10.128;2022-11-20T10:46:30;5.17;;;4.20;;
15706;SDS011;7953;54.302;10.128;2022-11-20T10:49:09;13.80;;;4.60;;
15706;SDS011;7953;54.302;10.128;2022-11-20T10:51:40;6.67;;;4.27;;
15706;SDS011;7953;54.302;10.128;2022-11-20T10:54:20;6.93;;;5.20;;
15706;SDS011;7953;54.302;10.128;2022-11-20T10:56:53;4.10;;;3.47;;
15706;SDS011;7953;54.302;10.128;2022-11-20T11:02:21;4.30;;;3.13;;
15706;SDS011;7953;54.302;10.128;2022-11-20T11:04:51;4.03;;;3.00;;
15706;SDS011;7953;54.302;10.128;2022-11-20T11:07:20;4.17;;;3.07;;
15706;SDS011;7953;54.302;10.128;2022-11-20T11:09:50;2.80;;;2.50;;
15706;SDS011;7953;54.302;10.128;2022-11-20T11:12:19;6.37;;;3.60;;
15706;SDS011;7953;54.302;10.128;2022-11-20T11:14:47;5.53;;;2.97;;
15706;SDS011;7953;54.302;10.128;2022-11-20T11:17:23;4.87;;;3.00;;
15706;SDS011;7953;54.302;10.128;2022-11-20T11:20:00;6.37;;;3.17;;
15706;SDS011;7953;54.302;10.128;2022-11-20T11:22:34;3.63;;;2.83;;
15706;SDS011;7953;54.302;10.128;2022-11-20T11:25:11;5.60;;;3.07;;
15706;SDS011;7953;54.302;10.128;2022-11-20T11:27:46;5.43;;;3.47;;
15706;SDS011;7953;54.302;10.128;2022-11-20T11:30:14;3.17;;;2.67;;
15706;SDS011;7953;54.302;10.128;2022-11-20T11:32:43;3.57;;;2.90;;
15706;SDS011;7953;54.302;10.128;2022-11-20T11:35:20;3.57;;;3.20;;
15706;SDS011;7953;54.302;10.128;2022-11-20T11:37:49;4.87;;;3.10;;
15706;SDS011;7953;54.302;10.128;2022-11-20T11:40:18;3.50;;;2.47;;
15706;SDS011;7953;54.302;10.128;2022-11-20T11:42:53;4.20;;;3.10;;
15706;SDS011;7953;54.302;10.128;2022-11-20T11:45:23;4.23;;;2.93;;
15706;SDS011;7953;54.302;10.128;2022-11-20T11:47:49;4.30;;;2.50;;
15706;SDS011;7953;54.302;10.128;2022-11-20T11:50:20;3.23;;;2.60;;
15706;SDS011;7953;54.302;10.128;2022-11-20T11:52:51;3.40;;;3.07;;
15706;SDS011;7953;54.302;10.128;2022-11-20T11:55:29;4.90;;;2.77;;
15706;SDS011;7953;54.302;10.128;2022-11-20T11:58:04;3.10;;;2.80;;
15706;SDS011;7953;54.302;10.128;2022-11-20T12:00:53;3.40;;;2.63;;
15706;SDS011;7953;54.302;10.128;2022-11-20T12:03:24;3.97;;;3.20;;
15706;SDS011;7953;54.302;10.128;2022-11-20T12:05:56;5.57;;;3.47;;
15706;SDS011;7953;54.302;10.128;2022-11-20T12:08:27;3.20;;;2.70;;
15706;SDS011;7953;54.302;10.128;2022-11-20T12:10:59;3.57;;;3.13;;
15706;SDS011;7953;54.302;10.128;2022-11-20T12:13:35;4.47;;;3.07;;
15706;SDS011;7953;54.302;10.128;2022-11-20T12:16:12;3.87;;;3.03;;
15706;SDS011;7953;54.302;10.128;2022-11-20T12:18:44;4.07;;;2.93;;
15706;SDS011;7953;54.302;10.128;2022-11-20T12:41:46;2.40;;;2.20;;
15706;SDS011;7953;54.302;10.128;2022-11-20T12:44:46;3.60;;;2.50;;
15706;SDS011;7953;54.302;10.128;2022-11-20T12:47:43;3.03;;;2.67;;
15706;SDS011;7953;54.302;10.128;2022-11-20T12:50:42;3.87;;;2.43;;
15706;SDS011;7953;54.302;10.128;2022-11-20T12:53:20;3.47;;;2.03;;
15706;SDS011;7953;54.302;10.128;2022-11-20T12:55:54;4.27;;;2.40;;
15706;SDS011;7953;54.302;10.128;2022-11-20T12:58:32;2.50;;;2.30;;
15706;SDS011;7953;54.302;10.128;2022-11-20T13:01:09;2.13;;;1.93;;
15706;SDS011;7953;54.302;10.128;2022-11-20T13:04:07;2.67;;;2.47;;
15706;SDS011;7953;54.302;10.128;2022-11-20T13:06:42;1.97;;;1.87;;
15706;SDS011;7953;54.302;10.128;2022-11-20T13:09:10;4.23;;;2.20;;
15706;SDS011;7953;54.302;10.128;2022-11-20T13:11:41;2.33;;;2.00;;
15706;SDS011;7953;54.302;10.128;2022-11-20T13:14:14;2.60;;;1.90;;
15706;SDS011;7953;54.302;10.128;2022-11-20T13:16:53;1.97;;;1.77;;
15706;SDS011;7953;54.302;10.128;2022-11-20T13:19:24;2.87;;;2.30;;
15706;SDS011;7953;54.302;10.128;2022-11-20T13:21:53;2.00;;;1.90;;
15706;SDS011;7953;54.302;10.128;2022-11-20T13:24:21;2.23;;;2.00;;
15706;SDS011;7953;54.302;10.128;2022-11-20T13:27:05;2.23;;;1.97;;
15706;SDS011;7953;54.302;10.128;2022-11-20T13:29:46;2.13;;;1.80;;
15706;SDS011;7953;54.302;10.128;2022-11-20T13:32:25;2.67;;;2.20;;
15706;SDS011;7953;54.302;10.128;2022-11-20T13:34:57;2.10;;;2.00;;
15706;SDS011;7953;54.302;10.128;2022-11-20T13:37:30;3.40;;;2.50;;
15706;SDS011;7953;54.302;10.128;2022-11-20T13:40:05;2.80;;;2.00;;
15706;SDS011;7953;54.302;10.128;2022-11-20T13:42:38;2.37;;;2.17;;
15706;SDS011;7953;54.302;10.128;2022-11-20T13:45:11;3.60;;;2.00;;
15706;SDS011;7953;54.302;10.128;2022-11-20T13:47:49;2.37;;;2.17;;
15706;SDS011;7953;54.302;10.128;2022-11-20T13:50:18;2.03;;;1.83;;
15706;SDS011;7953;54.302;10.128;2022-11-20T13:52:47;3.20;;;1.93;;
15706;SDS011;7953;54.302;10.128;2022-11-20T13:55:23;2.30;;;2.10;;
15706;SDS011;7953;54.302;10.128;2022-11-20T13:58:04;1.90;;;1.80;;
15706;SDS011;7953;54.302;10.128;2022-11-20T14:00:44;7.07;;;2.40;;
15706;SDS011;7953;54.302;10.128;2022-11-20T14:03:16;2.30;;;2.00;;
15706;SDS011;7953;54.302;10.128;2022-11-20T14:05:46;2.47;;;2.27;;
15706;SDS011;7953;54.302;10.128;2022-11-20T14:08:19;4.70;;;2.43;;
15706;SDS011;7953;54.302;10.128;2022-11-20T14:11:02;2.20;;;2.00;;
15706;SDS011;7953;54.302;10.128;2022-11-20T14:13:30;2.27;;;2.07;;
15706;SDS011;7953;54.302;10.128;2022-11-20T14:15:58;4.77;;;2.47;;
15706;SDS011;7953;54.302;10.128;2022-11-20T14:18:25;2.23;;;2.00;;
15706;SDS011;7953;54.302;10.128;2022-11-20T14:20:53;3.77;;;2.00;;
15706;SDS011;7953;54.302;10.128;2022-11-20T14:23:23;3.87;;;1.87;;
15706;SDS011;7953;54.302;10.128;2022-11-20T14:25:51;2.17;;;1.97;;
15706;SDS011;7953;54.302;10.128;2022-11-20T14:28:20;3.70;;;2.67;;
15706;SDS011;7953;54.302;10.128;2022-11-20T14:30:51;2.20;;;2.00;;
15706;SDS011;7953;54.302;10.128;2022-11-20T14:33:20;3.60;;;2.23;;
15706;SDS011;7953;54.302;10.128;2022-11-20T14:35:50;3.20;;;1.77;;
15706;SDS011;7953;54.302;10.128;2022-11-20T14:38:19;2.00;;;1.70;;
15706;SDS011;7953;54.302;10.128;2022-11-20T14:40:50;2.97;;;1.63;;
15706;SDS011;7953;54.302;10.128;2022-11-20T14:43:18;1.90;;;1.67;;
15706;SDS011;7953;54.302;10.128;2022-11-20T14:45:48;2.40;;;1.93;;
15706;SDS011;7953;54.302;10.128;2022-11-20T14:48:28;1.93;;;1.83;;
15706;SDS011;7953;54.302;10.128;2022-11-20T14:50:57;3.40;;;2.20;;
15706;SDS011;7953;54.302;10.128;2022-11-20T14:53:24;3.00;;;2.63;;
15706;SDS011;7953;54.302;10.128;2022-11-20T14:55:55;3.57;;;2.60;;
15706;SDS011;7953;54.302;10.128;2022-11-20T14:58:25;3.30;;;2.30;;
15706;SDS011;7953;54.302;10.128;2022-11-20T15:00:53;6.17;;;2.47;;
15706;SDS011;7953;54.302;10.128;2022-11-20T15:03:21;2.90;;;2.37;;
15706;SDS011;7953;54.302;10.128;2022-11-20T15:05:50;4.47;;;2.60;;
15706;SDS011;7953;54.302;10.128;2022-11-20T15:08:17;2.90;;;2.53;;
15706;SDS011;7953;54.302;10.128;2022-11-20T15:10:45;2.70;;;2.30;;
15706;SDS011;7953;54.302;10.128;2022-11-20T15:13:13;2.90;;;2.50;;
15706;SDS011;7953;54.302;10.128;2022-11-20T15:15:44;3.10;;;2.73;;
15706;SDS011;7953;54.302;10.128;2022-11-20T15:18:13;2.53;;;2.30;;
15706;SDS011;7953;54.302;10.128;2022-11-20T15:20:41;4.13;;;3.27;;
15706;SDS011;7953;54.302;10.128;2022-11-20T15:23:11;3.50;;;2.90;;
15706;SDS011;7953;54.302;10.128;2022-11-20T15:25:40;3.57;;;2.80;;
15706;SDS011;7953;54.302;10.128;2022-11-20T15:28:11;4.60;;;2.40;;